LF7424 weather

Altisurface du Glacier Du Dome Du Gouter
Chamonix, Rhône Alpes, France

Public forecast

Using degrees Celsius for public forecast. Weather courtesy of forecast.io.

METAR (pilot weather report)

Report is more than 2 hours old.

Closest report is Aosta Airport, 22.7 nm (42.0 km) ESE. Retrieved 2019/07/22 19:20 UTC (4 hours ago):

LIMW 221920Z AUTO 09006KT 9999 NCD 27/16 Q1022

TAF (pilot weather forecast)

Forecast is more than 6 hours old.

Closest forecast is Annecy-Haute-Savoie-Mont Blanc Airport, 31.5 nm (58.3 km) W. Retrieved 2019/07/22 15:00 UTC (9 hours ago):

TAF LFLP 221400Z 2215/2315 30005KT CAVOK BECMG 2219/2221 VRB03KT BECMG 2310/2312 33005KT